sensor_id;sensor_type;location;lat;lon;timestamp;pressure;altitude;pressure_sealevel;temperature;humidity
15750;BME280;7976;52.526;13.326;2023-02-15T00:01:48;102766.81;;;5.75;83.33
15750;BME280;7976;52.526;13.326;2023-02-15T00:04:18;102763.31;;;5.73;83.37
15750;BME280;7976;52.526;13.326;2023-02-15T00:06:47;102775.47;;;5.74;83.59
15750;BME280;7976;52.526;13.326;2023-02-15T00:09:15;102776.28;;;5.73;83.42
15750;BME280;7976;52.526;13.326;2023-02-15T00:11:42;102765.03;;;5.71;83.45
15750;BME280;7976;52.526;13.326;2023-02-15T00:14:19;102766.72;;;5.69;83.36
15750;BME280;7976;52.526;13.326;2023-02-15T00:16:49;102766.69;;;5.66;83.62
15750;BME280;7976;52.526;13.326;2023-02-15T00:19:19;102760.53;;;5.61;83.76
15750;BME280;7976;52.526;13.326;2023-02-15T00:21:48;102754.47;;;5.62;83.79
15750;BME280;7976;52.526;13.326;2023-02-15T00:24:18;102750.16;;;5.61;83.84
15750;BME280;7976;52.526;13.326;2023-02-15T00:26:47;102743.22;;;5.61;84.22
15750;BME280;7976;52.526;13.326;2023-02-15T00:29:18;102745.00;;;5.64;84.13
15750;BME280;7976;52.526;13.326;2023-02-15T00:31:46;102741.50;;;5.62;84.09
15750;BME280;7976;52.526;13.326;2023-02-15T00:34:17;102743.22;;;5.61;84.02
15750;BME280;7976;52.526;13.326;2023-02-15T00:36:45;102748.41;;;5.61;84.20
15750;BME280;7976;52.526;13.326;2023-02-15T00:39:16;102743.16;;;5.58;83.87
15750;BME280;7976;52.526;13.326;2023-02-15T00:41:44;102746.59;;;5.56;84.03
15750;BME280;7976;52.526;13.326;2023-02-15T00:44:14;102740.50;;;5.54;84.22
15750;BME280;7976;52.526;13.326;2023-02-15T00:46:42;102746.53;;;5.53;84.08
15750;BME280;7976;52.526;13.326;2023-02-15T00:49:10;102757.81;;;5.53;84.40
15750;BME280;7976;52.526;13.326;2023-02-15T00:51:38;102744.81;;;5.52;84.33
15750;BME280;7976;52.526;13.326;2023-02-15T00:54:07;102747.41;;;5.52;84.17
15750;BME280;7976;52.526;13.326;2023-02-15T00:56:36;102744.81;;;5.52;84.39
15750;BME280;7976;52.526;13.326;2023-02-15T00:59:03;102752.63;;;5.53;84.31
15750;BME280;7976;52.526;13.326;2023-02-15T01:01:30;102744.78;;;5.50;84.24
15750;BME280;7976;52.526;13.326;2023-02-15T01:03:57;102732.59;;;5.46;84.50
15750;BME280;7976;52.526;13.326;2023-02-15T01:06:25;102733.44;;;5.45;84.33
15750;BME280;7976;52.526;13.326;2023-02-15T01:08:52;102728.25;;;5.44;84.57
15750;BME280;7976;52.526;13.326;2023-02-15T01:11:22;102732.53;;;5.42;84.34
15750;BME280;7976;52.526;13.326;2023-02-15T01:13:54;102724.69;;;5.39;84.70
15750;BME280;7976;52.526;13.326;2023-02-15T01:16:25;102721.19;;;5.37;84.57
15750;BME280;7976;52.526;13.326;2023-02-15T01:18:52;102721.19;;;5.37;84.70
15750;BME280;7976;52.526;13.326;2023-02-15T01:21:24;102721.19;;;5.37;84.79
15750;BME280;7976;52.526;13.326;2023-02-15T01:23:51;102710.75;;;5.32;84.59
15750;BME280;7976;52.526;13.326;2023-02-15T01:26:19;102710.78;;;5.34;84.71
15750;BME280;7976;52.526;13.326;2023-02-15T01:28:47;102715.97;;;5.35;84.88
15750;BME280;7976;52.526;13.326;2023-02-15T01:31:20;102711.69;;;5.36;84.99
15750;BME280;7976;52.526;13.326;2023-02-15T01:33:48;102714.28;;;5.36;84.95
15750;BME280;7976;52.526;13.326;2023-02-15T01:36:16;102705.59;;;5.34;85.12
15750;BME280;7976;52.526;13.326;2023-02-15T01:38:43;102706.47;;;5.34;85.19
15750;BME280;7976;52.526;13.326;2023-02-15T01:41:10;102701.28;;;5.36;85.06
15750;BME280;7976;52.526;13.326;2023-02-15T01:43:51;102695.25;;;5.37;85.19
15750;BME280;7976;52.526;13.326;2023-02-15T01:46:26;102693.53;;;5.37;85.10
15750;BME280;7976;52.526;13.326;2023-02-15T01:49:01;102687.41;;;5.34;85.02
15750;BME280;7976;52.526;13.326;2023-02-15T01:51:33;102678.72;;;5.32;84.73
15750;BME280;7976;52.526;13.326;2023-02-15T01:54:06;102672.59;;;5.27;85.14
15750;BME280;7976;52.526;13.326;2023-02-15T01:56:38;102669.13;;;5.26;85.14
15750;BME280;7976;52.526;13.326;2023-02-15T01:59:12;102664.03;;;5.31;85.14
15750;BME280;7976;52.526;13.326;2023-02-15T02:01:44;102660.53;;;5.29;85.09
15750;BME280;7976;52.526;13.326;2023-02-15T02:04:17;102663.94;;;5.28;85.09
15750;BME280;7976;52.526;13.326;2023-02-15T02:06:50;102659.63;;;5.27;85.28
15750;BME280;7976;52.526;13.326;2023-02-15T02:09:18;102657.88;;;5.26;85.24
15750;BME280;7976;52.526;13.326;2023-02-15T02:11:47;102652.63;;;5.23;85.22
15750;BME280;7976;52.526;13.326;2023-02-15T02:14:16;102646.56;;;5.21;85.18
15750;BME280;7976;52.526;13.326;2023-02-15T02:16:54;102649.16;;;5.21;85.20
15750;BME280;7976;52.526;13.326;2023-02-15T02:20:15;102651.75;;;5.21;85.38
15750;BME280;7976;52.526;13.326;2023-02-15T02:23:22;102657.78;;;5.21;85.28
15750;BME280;7976;52.526;13.326;2023-02-15T02:27:07;102649.97;;;5.20;85.42
15750;BME280;7976;52.526;13.326;2023-02-15T02:30:24;102638.75;;;5.19;85.37
15750;BME280;7976;52.526;13.326;2023-02-15T02:33:34;102637.84;;;5.16;85.11
15750;BME280;7976;52.526;13.326;2023-02-15T02:36:24;102636.03;;;5.11;85.24
15750;BME280;7976;52.526;13.326;2023-02-15T02:39:10;102632.53;;;5.09;85.88
15750;BME280;7976;52.526;13.326;2023-02-15T02:41:50;102635.97;;;5.08;85.57
15750;BME280;7976;52.526;13.326;2023-02-15T02:44:26;102636.81;;;5.09;85.35
15750;BME280;7976;52.526;13.326;2023-02-15T02:47:04;102627.25;;;5.03;85.42
15750;BME280;7976;52.526;13.326;2023-02-15T02:49:38;102624.56;;;4.99;85.50
15750;BME280;7976;52.526;13.326;2023-02-15T02:52:41;102627.06;;;4.91;85.62
15750;BME280;7976;52.526;13.326;2023-02-15T02:55:16;102623.56;;;4.89;85.74
15750;BME280;7976;52.526;13.326;2023-02-15T02:57:52;102617.56;;;4.92;85.64
15750;BME280;7976;52.526;13.326;2023-02-15T03:00:24;102616.63;;;4.88;85.81
15750;BME280;7976;52.526;13.326;2023-02-15T03:02:59;102615.78;;;4.89;86.04
15750;BME280;7976;52.526;13.326;2023-02-15T03:05:33;102609.69;;;4.87;86.00
15750;BME280;7976;52.526;13.326;2023-02-15T03:08:07;102614.88;;;4.87;86.01
15750;BME280;7976;52.526;13.326;2023-02-15T03:10:38;102610.59;;;4.89;86.31
15750;BME280;7976;52.526;13.326;2023-02-15T03:13:08;102614.03;;;4.88;86.30
15750;BME280;7976;52.526;13.326;2023-02-15T03:15:39;102610.53;;;4.85;86.29
15750;BME280;7976;52.526;13.326;2023-02-15T03:18:43;102603.50;;;4.79;86.03
15750;BME280;7976;52.526;13.326;2023-02-15T03:21:26;102603.41;;;4.73;86.24
15750;BME280;7976;52.526;13.326;2023-02-15T03:24:02;102597.31;;;4.70;86.10
15750;BME280;7976;52.526;13.326;2023-02-15T03:26:36;102599.88;;;4.68;86.64
15750;BME280;7976;52.526;13.326;2023-02-15T03:29:07;102597.28;;;4.68;86.89
15750;BME280;7976;52.526;13.326;2023-02-15T03:31:44;102593.84;;;4.71;86.97
15750;BME280;7976;52.526;13.326;2023-02-15T03:34:15;102592.13;;;4.71;86.90
15750;BME280;7976;52.526;13.326;2023-02-15T03:36:51;102588.63;;;4.69;86.86
15750;BME280;7976;52.526;13.326;2023-02-15T03:39:28;102594.63;;;4.65;86.54
15750;BME280;7976;52.526;13.326;2023-02-15T03:42:07;102586.78;;;4.62;86.54
15750;BME280;7976;52.526;13.326;2023-02-15T03:44:47;102585.94;;;4.62;86.83
15750;BME280;7976;52.526;13.326;2023-02-15T03:47:20;102593.69;;;4.60;86.63
15750;BME280;7976;52.526;13.326;2023-02-15T03:49:56;102585.84;;;4.57;86.67
15750;BME280;7976;52.526;13.326;2023-02-15T03:52:28;102585.78;;;4.54;86.69
15750;BME280;7976;52.526;13.326;2023-02-15T03:54:57;102583.16;;;4.51;86.44
15750;BME280;7976;52.526;13.326;2023-02-15T03:57:28;102572.69;;;4.45;86.15
15750;BME280;7976;52.526;13.326;2023-02-15T04:00:16;102576.94;;;4.42;86.32
15750;BME280;7976;52.526;13.326;2023-02-15T04:03:20;102583.75;;;4.35;86.09
15750;BME280;7976;52.526;13.326;2023-02-15T04:05:49;102579.34;;;4.31;86.29
15750;BME280;7976;52.526;13.326;2023-02-15T04:08:16;102569.84;;;4.32;86.45
15750;BME280;7976;52.526;13.326;2023-02-15T04:10:45;102573.28;;;4.32;86.48
15750;BME280;7976;52.526;13.326;2023-02-15T04:13:30;102575.88;;;4.32;86.57
15750;BME280;7976;52.526;13.326;2023-02-15T04:15:58;102575.78;;;4.26;86.27
15750;BME280;7976;52.526;13.326;2023-02-15T04:18:31;102565.34;;;4.22;86.20
15750;BME280;7976;52.526;13.326;2023-02-15T04:21:17;102567.97;;;4.23;86.58
15750;BME280;7976;52.526;13.326;2023-02-15T04:24:02;102563.59;;;4.22;86.28
15750;BME280;7976;52.526;13.326;2023-02-15T04:26:48;102560.06;;;4.17;86.20
15750;BME280;7976;52.526;13.326;2023-02-15T04:29:19;102563.47;;;4.15;86.35
15750;BME280;7976;52.526;13.326;2023-02-15T04:31:46;102560.75;;;4.09;86.58
15750;BME280;7976;52.526;13.326;2023-02-15T04:34:15;102558.16;;;4.07;86.38
15750;BME280;7976;52.526;13.326;2023-02-15T04:36:43;102561.53;;;4.03;86.51
15750;BME280;7976;52.526;13.326;2023-02-15T04:39:13;102558.00;;;3.98;86.40
15750;BME280;7976;52.526;13.326;2023-02-15T04:41:41;102556.13;;;3.91;86.45
15750;BME280;7976;52.526;13.326;2023-02-15T04:44:10;102550.00;;;3.88;86.57
15750;BME280;7976;52.526;13.326;2023-02-15T04:46:38;102544.78;;;3.84;86.77
15750;BME280;7976;52.526;13.326;2023-02-15T04:49:05;102537.84;;;3.83;86.75
15750;BME280;7976;52.526;13.326;2023-02-15T04:51:32;102538.66;;;3.81;86.58
15750;BME280;7976;52.526;13.326;2023-02-15T04:53:59;102536.84;;;3.77;86.59
15750;BME280;7976;52.526;13.326;2023-02-15T04:56:26;102525.53;;;3.72;86.70
15750;BME280;7976;52.526;13.326;2023-02-15T04:58:55;102516.84;;;3.68;87.07
15750;BME280;7976;52.526;13.326;2023-02-15T05:01:24;102514.16;;;3.64;86.66
15750;BME280;7976;52.526;13.326;2023-02-15T05:03:51;102510.63;;;3.59;86.74
15750;BME280;7976;52.526;13.326;2023-02-15T05:06:18;102507.06;;;3.54;87.12
15750;BME280;7976;52.526;13.326;2023-02-15T05:08:45;102512.25;;;3.55;87.11
15750;BME280;7976;52.526;13.326;2023-02-15T05:11:11;102500.16;;;3.53;87.09
15750;BME280;7976;52.526;13.326;2023-02-15T05:13:38;102503.56;;;3.52;87.31
15750;BME280;7976;52.526;13.326;2023-02-15T05:16:05;102499.22;;;3.49;87.26
15750;BME280;7976;52.526;13.326;2023-02-15T05:18:34;102510.34;;;3.47;87.26
15750;BME280;7976;52.526;13.326;2023-02-15T05:21:01;102506.91;;;3.45;87.47
15750;BME280;7976;52.526;13.326;2023-02-15T05:23:28;102513.63;;;3.38;87.08
15750;BME280;7976;52.526;13.326;2023-02-15T05:25:55;102511.91;;;3.39;87.41
15750;BME280;7976;52.526;13.326;2023-02-15T05:28:39;102510.22;;;3.39;87.49
15750;BME280;7976;52.526;13.326;2023-02-15T05:31:10;102507.66;;;3.41;87.91
15750;BME280;7976;52.526;13.326;2023-02-15T05:33:40;102507.72;;;3.44;87.51
15750;BME280;7976;52.526;13.326;2023-02-15T05:36:08;102498.19;;;3.41;87.41
15750;BME280;7976;52.526;13.326;2023-02-15T05:38:37;102498.97;;;3.37;87.33
15750;BME280;7976;52.526;13.326;2023-02-15T05:41:05;102498.91;;;3.34;87.13
15750;BME280;7976;52.526;13.326;2023-02-15T05:43:33;102496.22;;;3.30;87.18
15750;BME280;7976;52.526;13.326;2023-02-15T05:46:00;102491.81;;;3.26;87.31
15750;BME280;7976;52.526;13.326;2023-02-15T05:48:28;102490.91;;;3.24;87.26
15750;BME280;7976;52.526;13.326;2023-02-15T05:51:02;102484.84;;;3.22;87.28
15750;BME280;7976;52.526;13.326;2023-02-15T05:53:33;102487.34;;;3.19;87.23
15750;BME280;7976;52.526;13.326;2023-02-15T05:56:02;102487.28;;;3.14;87.21
15750;BME280;7976;52.526;13.326;2023-02-15T05:58:32;102489.81;;;3.13;87.49
15750;BME280;7976;52.526;13.326;2023-02-15T06:00:59;102495.84;;;3.13;87.76
15750;BME280;7976;52.526;13.326;2023-02-15T06:03:26;102494.09;;;3.11;87.52
15750;BME280;7976;52.526;13.326;2023-02-15T06:05:54;102492.25;;;3.07;87.67
15750;BME280;7976;52.526;13.326;2023-02-15T06:08:23;102483.63;;;3.05;87.90
15750;BME280;7976;52.526;13.326;2023-02-15T06:10:50;102480.97;;;3.03;87.60
15750;BME280;7976;52.526;13.326;2023-02-15T06:13:17;102491.22;;;2.99;87.50
15750;BME280;7976;52.526;13.326;2023-02-15T06:15:44;102479.91;;;2.94;87.64
15750;BME280;7976;52.526;13.326;2023-02-15T06:18:11;102492.78;;;2.91;87.75
15750;BME280;7976;52.526;13.326;2023-02-15T06:20:38;102490.13;;;2.88;87.70
15750;BME280;7976;52.526;13.326;2023-02-15T06:23:05;102497.94;;;2.91;88.16
15750;BME280;7976;52.526;13.326;2023-02-15T06:25:33;102492.03;;;2.95;88.58
15750;BME280;7976;52.526;13.326;2023-02-15T06:28:00;102491.16;;;2.96;88.04
15750;BME280;7976;52.526;13.326;2023-02-15T06:30:28;102490.25;;;2.94;88.18
15750;BME280;7976;52.526;13.326;2023-02-15T06:32:55;102486.78;;;2.93;88.62
15750;BME280;7976;52.526;13.326;2023-02-15T06:35:22;102489.38;;;2.93;88.44
15750;BME280;7976;52.526;13.326;2023-02-15T06:37:49;102476.44;;;2.93;88.60
15750;BME280;7976;52.526;13.326;2023-02-15T06:40:17;102479.03;;;2.93;88.49
15750;BME280;7976;52.526;13.326;2023-02-15T06:42:46;102478.03;;;2.87;88.42
15750;BME280;7976;52.526;13.326;2023-02-15T06:45:13;102478.88;;;2.86;88.85
15750;BME280;7976;52.526;13.326;2023-02-15T06:47:40;102476.16;;;2.80;88.79
15750;BME280;7976;52.526;13.326;2023-02-15T06:50:08;102469.13;;;2.73;89.13
15750;BME280;7976;52.526;13.326;2023-02-15T06:52:36;102471.66;;;2.71;89.18
15750;BME280;7976;52.526;13.326;2023-02-15T06:55:03;102482.84;;;2.72;89.69
15750;BME280;7976;52.526;13.326;2023-02-15T06:57:30;102476.00;;;2.74;89.53
15750;BME280;7976;52.526;13.326;2023-02-15T06:59:59;102479.44;;;2.73;89.70
15750;BME280;7976;52.526;13.326;2023-02-15T07:02:26;102479.44;;;2.73;89.77
15750;BME280;7976;52.526;13.326;2023-02-15T07:04:54;102483.06;;;2.81;90.24
15750;BME280;7976;52.526;13.326;2023-02-15T07:07:21;102480.59;;;2.87;90.16
15750;BME280;7976;52.526;13.326;2023-02-15T07:09:48;102482.47;;;2.92;90.08
15750;BME280;7976;52.526;13.326;2023-02-15T07:12:15;102476.34;;;2.89;89.73
15750;BME280;7976;52.526;13.326;2023-02-15T07:15:00;102467.69;;;2.87;90.01
15750;BME280;7976;52.526;13.326;2023-02-15T07:17:30;102469.56;;;2.94;90.48
15750;BME280;7976;52.526;13.326;2023-02-15T07:19:57;102469.63;;;2.97;90.05
15750;BME280;7976;52.526;13.326;2023-02-15T07:22:24;102462.72;;;2.96;89.93
15750;BME280;7976;52.526;13.326;2023-02-15T07:24:51;102461.81;;;2.94;89.85
15750;BME280;7976;52.526;13.326;2023-02-15T07:27:20;102458.31;;;2.92;89.89
15750;BME280;7976;52.526;13.326;2023-02-15T07:29:47;102457.34;;;2.87;89.85
15750;BME280;7976;52.526;13.326;2023-02-15T07:32:16;102458.19;;;2.86;89.96
15750;BME280;7976;52.526;13.326;2023-02-15T07:34:43;102442.75;;;2.89;90.29
15750;BME280;7976;52.526;13.326;2023-02-15T07:37:11;102444.59;;;2.94;90.33
15750;BME280;7976;52.526;13.326;2023-02-15T07:39:39;102448.06;;;2.95;90.19
15750;BME280;7976;52.526;13.326;2023-02-15T07:42:06;102442.13;;;2.99;90.16
15750;BME280;7976;52.526;13.326;2023-02-15T07:44:33;102437.88;;;3.02;90.40
15750;BME280;7976;52.526;13.326;2023-02-15T07:47:00;102435.28;;;3.01;90.07
15750;BME280;7976;52.526;13.326;2023-02-15T07:49:29;102434.31;;;2.97;89.97
15750;BME280;7976;52.526;13.326;2023-02-15T07:51:56;102437.91;;;3.04;90.07
15750;BME280;7976;52.526;13.326;2023-02-15T07:54:23;102431.84;;;3.03;89.96
15750;BME280;7976;52.526;13.326;2023-02-15T07:56:51;102432.75;;;3.04;89.97
15750;BME280;7976;52.526;13.326;2023-02-15T07:59:18;102429.41;;;3.08;89.94
15750;BME280;7976;52.526;13.326;2023-02-15T08:01:45;102427.66;;;3.08;89.67
15750;BME280;7976;52.526;13.326;2023-02-15T08:04:13;102431.09;;;3.07;89.47
15750;BME280;7976;52.526;13.326;2023-02-15T08:06:42;102426.75;;;3.05;89.57
15750;BME280;7976;52.526;13.326;2023-02-15T08:09:09;102428.69;;;3.15;89.49
15750;BME280;7976;52.526;13.326;2023-02-15T08:11:38;102429.56;;;3.17;89.37
15750;BME280;7976;52.526;13.326;2023-02-15T08:14:09;102431.31;;;3.18;89.55
15750;BME280;7976;52.526;13.326;2023-02-15T08:16:38;102429.56;;;3.17;89.69
15750;BME280;7976;52.526;13.326;2023-02-15T08:19:08;102420.19;;;3.22;89.57
15750;BME280;7976;52.526;13.326;2023-02-15T08:21:38;102423.69;;;3.24;89.62
15750;BME280;7976;52.526;13.326;2023-02-15T08:24:09;102420.31;;;3.28;89.48
15750;BME280;7976;52.526;13.326;2023-02-15T08:26:38;102420.34;;;3.29;89.50
15750;BME280;7976;52.526;13.326;2023-02-15T08:29:08;102417.13;;;3.41;89.86
15750;BME280;7976;52.526;13.326;2023-02-15T08:31:36;102421.66;;;3.52;90.00
15750;BME280;7976;52.526;13.326;2023-02-15T08:34:05;102411.47;;;3.60;89.64
15750;BME280;7976;52.526;13.326;2023-02-15T08:36:32;102408.09;;;3.65;89.37
15750;BME280;7976;52.526;13.326;2023-02-15T08:39:03;102405.53;;;3.67;88.97
15750;BME280;7976;52.526;13.326;2023-02-15T08:41:37;102418.47;;;3.67;88.46
15750;BME280;7976;52.526;13.326;2023-02-15T08:44:08;102401.19;;;3.64;88.37
15750;BME280;7976;52.526;13.326;2023-02-15T08:46:40;102403.69;;;3.60;88.22
15750;BME280;7976;52.526;13.326;2023-02-15T08:49:08;102402.78;;;3.58;88.55
15750;BME280;7976;52.526;13.326;2023-02-15T08:51:38;102397.69;;;3.62;88.68
15750;BME280;7976;52.526;13.326;2023-02-15T08:54:08;102394.41;;;3.71;88.46
15750;BME280;7976;52.526;13.326;2023-02-15T08:56:40;102390.13;;;3.73;88.25
15750;BME280;7976;52.526;13.326;2023-02-15T08:59:14;102390.13;;;3.73;88.16
15750;BME280;7976;52.526;13.326;2023-02-15T09:01:43;102378.91;;;3.74;88.25
15750;BME280;7976;52.526;13.326;2023-02-15T09:04:11;102385.91;;;3.78;88.26
15750;BME280;7976;52.526;13.326;2023-02-15T09:06:42;102376.47;;;3.81;88.34
15750;BME280;7976;52.526;13.326;2023-02-15T09:09:11;102384.25;;;3.81;87.81
15750;BME280;7976;52.526;13.326;2023-02-15T09:11:42;102370.41;;;3.79;87.79
15750;BME280;7976;52.526;13.326;2023-02-15T09:14:12;102380.16;;;3.97;87.89
15750;BME280;7976;52.526;13.326;2023-02-15T09:16:42;102376.03;;;4.07;88.06
15750;BME280;7976;52.526;13.326;2023-02-15T09:19:10;102374.41;;;4.13;87.66
15750;BME280;7976;52.526;13.326;2023-02-15T09:21:38;102381.34;;;4.17;87.07
15750;BME280;7976;52.526;13.326;2023-02-15T09:24:09;102369.31;;;4.19;87.05
15750;BME280;7976;52.526;13.326;2023-02-15T09:26:40;102377.09;;;4.22;86.72
15750;BME280;7976;52.526;13.326;2023-02-15T09:29:09;102378.91;;;4.26;86.62
15750;BME280;7976;52.526;13.326;2023-02-15T09:31:40;102373.78;;;4.29;86.77
15750;BME280;7976;52.526;13.326;2023-02-15T09:34:10;102375.47;;;4.27;85.98
15750;BME280;7976;52.526;13.326;2023-02-15T09:36:40;102377.25;;;4.31;86.05
15750;BME280;7976;52.526;13.326;2023-02-15T09:39:11;102376.47;;;4.35;86.00
15750;BME280;7976;52.526;13.326;2023-02-15T09:45:31;102371.44;;;4.47;85.76
15750;BME280;7976;52.526;13.326;2023-02-15T09:48:41;102374.97;;;4.54;85.29
15750;BME280;7976;52.526;13.326;2023-02-15T09:51:54;102370.81;;;4.63;85.41
15750;BME280;7976;52.526;13.326;2023-02-15T09:54:44;102363.94;;;4.65;84.80
15750;BME280;7976;52.526;13.326;2023-02-15T09:57:29;102378.66;;;4.68;85.02
15750;BME280;7976;52.526;13.326;2023-02-15T10:00:07;102376.97;;;4.71;84.88
15750;BME280;7976;52.526;13.326;2023-02-15T10:03:10;102372.72;;;4.78;84.77
15750;BME280;7976;52.526;13.326;2023-02-15T10:05:57;102370.16;;;4.79;84.67
15750;BME280;7976;52.526;13.326;2023-02-15T10:08:51;102372.00;;;4.88;84.88
15750;BME280;7976;52.526;13.326;2023-02-15T10:11:37;102373.84;;;4.96;84.62
15750;BME280;7976;52.526;13.326;2023-02-15T10:14:33;102371.38;;;5.05;84.74
15750;BME280;7976;52.526;13.326;2023-02-15T10:17:23;102367.94;;;5.11;84.24
15750;BME280;7976;52.526;13.326;2023-02-15T10:20:10;102357.66;;;5.19;84.10
15750;BME280;7976;52.526;13.326;2023-02-15T10:22:53;102350.06;;;5.35;84.30
15750;BME280;7976;52.526;13.326;2023-02-15T10:25:36;102357.25;;;5.62;84.27
15750;BME280;7976;52.526;13.326;2023-02-15T10:28:17;102336.63;;;5.78;82.71
15750;BME280;7976;52.526;13.326;2023-02-15T10:30:50;102339.19;;;5.77;81.47
15750;BME280;7976;52.526;13.326;2023-02-15T10:33:38;102338.28;;;5.70;81.25
15750;BME280;7976;52.526;13.326;2023-02-15T10:36:24;102328.78;;;5.71;81.58
15750;BME280;7976;52.526;13.326;2023-02-15T10:39:02;102324.66;;;5.95;81.61
15750;BME280;7976;52.526;13.326;2023-02-15T10:41:42;102322.31;;;6.33;81.28
15750;BME280;7976;52.526;13.326;2023-02-15T10:44:33;102320.75;;;6.62;80.11
15750;BME280;7976;52.526;13.326;2023-02-15T10:47:35;102319.00;;;6.61;78.57
15750;BME280;7976;52.526;13.326;2023-02-15T10:50:23;102320.66;;;6.49;78.70
15750;BME280;7976;52.526;13.326;2023-02-15T10:53:09;102316.28;;;6.42;78.86
15750;BME280;7976;52.526;13.326;2023-02-15T10:55:51;102311.06;;;6.37;78.89
15750;BME280;7976;52.526;13.326;2023-02-15T10:58:39;102312.84;;;6.43;79.01
15750;BME280;7976;52.526;13.326;2023-02-15T11:01:20;102300.84;;;6.72;78.81
15750;BME280;7976;52.526;13.326;2023-02-15T11:04:11;102298.28;;;6.82;77.68
15750;BME280;7976;52.526;13.326;2023-02-15T11:06:50;102294.78;;;6.80;77.47
15750;BME280;7976;52.526;13.326;2023-02-15T11:09:24;102296.50;;;6.69;77.44
15750;BME280;7976;52.526;13.326;2023-02-15T11:12:07;102294.72;;;6.62;77.81
15750;BME280;7976;52.526;13.326;2023-02-15T11:14:46;102286.94;;;6.65;78.10
15750;BME280;7976;52.526;13.326;2023-02-15T11:17:23;102289.59;;;6.74;78.38
15750;BME280;7976;52.526;13.326;2023-02-15T11:20:04;102287.88;;;6.76;78.17
15750;BME280;7976;52.526;13.326;2023-02-15T11:22:35;102283.50;;;6.75;77.93
15750;BME280;7976;52.526;13.326;2023-02-15T11:25:17;102277.47;;;6.76;78.19
15750;BME280;7976;52.526;13.326;2023-02-15T11:27:49;102274.03;;;6.85;78.28
15750;BME280;7976;52.526;13.326;2023-02-15T11:30:21;102273.19;;;7.02;77.86
15750;BME280;7976;52.526;13.326;2023-02-15T11:32:53;102263.66;;;7.25;78.02
15750;BME280;7976;52.526;13.326;2023-02-15T11:35:28;102253.25;;;7.40;77.15
15750;BME280;7976;52.526;13.326;2023-02-15T11:38:06;102265.41;;;7.50;76.71
15750;BME280;7976;52.526;13.326;2023-02-15T11:40:51;102265.41;;;7.50;76.77
15750;BME280;7976;52.526;13.326;2023-02-15T11:43:32;102255.00;;;7.49;76.70
15750;BME280;7976;52.526;13.326;2023-02-15T11:46:03;102255.88;;;7.54;76.93
15750;BME280;7976;52.526;13.326;2023-02-15T11:48:32;102252.41;;;7.56;76.64
15750;BME280;7976;52.526;13.326;2023-02-15T11:51:03;102252.41;;;7.59;76.52
15750;BME280;7976;52.526;13.326;2023-02-15T11:53:36;102246.31;;;7.60;76.66
15750;BME280;7976;52.526;13.326;2023-02-15T11:56:05;102247.19;;;7.61;76.36
15750;BME280;7976;52.526;13.326;2023-02-15T11:58:44;102248.06;;;7.64;76.70
15750;BME280;7976;52.526;13.326;2023-02-15T12:01:19;102242.84;;;7.69;76.83
15750;BME280;7976;52.526;13.326;2023-02-15T12:03:50;102242.88;;;7.74;76.96
15750;BME280;7976;52.526;13.326;2023-02-15T12:06:24;102242.84;;;7.77;76.65
15750;BME280;7976;52.526;13.326;2023-02-15T12:09:01;102241.13;;;7.79;76.34
15750;BME280;7976;52.526;13.326;2023-02-15T12:11:36;102251.50;;;7.88;76.30
15750;BME280;7976;52.526;13.326;2023-02-15T12:14:10;102238.47;;;7.91;76.24
15750;BME280;7976;52.526;13.326;2023-02-15T12:16:44;102229.78;;;7.93;76.20
15750;BME280;7976;52.526;13.326;2023-02-15T12:19:29;102228.91;;;7.94;75.96
15750;BME280;7976;52.526;13.326;2023-02-15T12:22:01;102221.94;;;7.98;75.77
15750;BME280;7976;52.526;13.326;2023-02-15T12:24:33;102225.41;;;8.06;75.75
15750;BME280;7976;52.526;13.326;2023-02-15T12:27:05;102210.59;;;8.12;75.66
15750;BME280;7976;52.526;13.326;2023-02-15T12:29:41;102209.69;;;8.21;75.54
15750;BME280;7976;52.526;13.326;2023-02-15T12:32:17;102213.16;;;8.35;75.43
15750;BME280;7976;52.526;13.326;2023-02-15T12:34:45;102209.66;;;8.43;74.98
15750;BME280;7976;52.526;13.326;2023-02-15T12:37:20;102200.09;;;8.47;74.42
15750;BME280;7976;52.526;13.326;2023-02-15T12:39:56;102202.66;;;8.50;74.72
15750;BME280;7976;52.526;13.326;2023-02-15T12:42:24;102200.94;;;8.52;74.38
15750;BME280;7976;52.526;13.326;2023-02-15T12:45:00;102191.34;;;8.54;74.57
15750;BME280;7976;52.526;13.326;2023-02-15T12:47:30;102188.72;;;8.57;74.24
15750;BME280;7976;52.526;13.326;2023-02-15T12:50:13;102180.00;;;8.58;73.85
15750;BME280;7976;52.526;13.326;2023-02-15T12:52:48;102188.66;;;8.66;73.83
15750;BME280;7976;52.526;13.326;2023-02-15T12:55:23;102176.50;;;8.65;73.66
15750;BME280;7976;52.526;13.326;2023-02-15T12:58:07;102172.13;;;8.67;73.74
15750;BME280;7976;52.526;13.326;2023-02-15T13:00:34;102169.53;;;8.68;73.50
15750;BME280;7976;52.526;13.326;2023-02-15T13:03:03;102167.75;;;8.72;73.23
15750;BME280;7976;52.526;13.326;2023-02-15T13:05:35;102160.78;;;8.77;73.03
15750;BME280;7976;52.526;13.326;2023-02-15T13:08:14;102159.00;;;8.82;72.56
15750;BME280;7976;52.526;13.326;2023-02-15T13:10:54;102162.47;;;8.84;72.67
15750;BME280;7976;52.526;13.326;2023-02-15T13:13:26;102151.06;;;8.91;72.71
15750;BME280;7976;52.526;13.326;2023-02-15T13:15:59;102153.63;;;9.00;72.83
15750;BME280;7976;52.526;13.326;2023-02-15T13:18:32;102144.91;;;9.04;72.65
15750;BME280;7976;52.526;13.326;2023-02-15T13:21:10;102137.94;;;9.03;72.69
15750;BME280;7976;52.526;13.326;2023-02-15T13:23:46;102142.25;;;9.07;72.71
15750;BME280;7976;52.526;13.326;2023-02-15T13:26:19;102140.50;;;9.06;72.78
15750;BME280;7976;52.526;13.326;2023-02-15T13:28:52;102135.28;;;9.09;72.97
15750;BME280;7976;52.526;13.326;2023-02-15T13:31:27;102133.50;;;9.11;73.07
15750;BME280;7976;52.526;13.326;2023-02-15T13:34:03;102136.06;;;9.19;73.22
15750;BME280;7976;52.526;13.326;2023-02-15T13:36:45;102131.66;;;9.25;72.93
15750;BME280;7976;52.526;13.326;2023-02-15T13:39:26;102125.53;;;9.26;73.22